createdAt,value
2018-07-01T00:00:18.914Z,0
2018-07-01T00:01:26.892Z,0
2018-07-01T00:02:34.985Z,0
2018-07-01T00:03:43.048Z,0
2018-07-01T00:04:51.114Z,0
2018-07-01T00:05:59.187Z,0
2018-07-01T00:07:07.220Z,0
2018-07-01T00:08:15.317Z,0
2018-07-01T00:09:23.377Z,0
2018-07-01T00:10:31.451Z,0
2018-07-01T00:11:39.528Z,0
2018-07-01T00:12:47.556Z,0
2018-07-01T00:13:56.092Z,0
2018-07-01T00:15:03.724Z,0
2018-07-01T00:16:11.813Z,0
2018-07-01T00:17:19.849Z,0
2018-07-01T00:18:28.116Z,0
2018-07-01T00:19:36.198Z,0
2018-07-01T00:20:44.259Z,0
2018-07-01T00:21:52.329Z,0
2018-07-01T00:23:00.396Z,0
2018-07-01T00:24:08.463Z,0
2018-07-01T00:25:16.526Z,0
2018-07-01T00:26:24.599Z,0
2018-07-01T00:27:32.670Z,0
2018-07-01T00:28:40.725Z,0
2018-07-01T00:29:48.804Z,0
2018-07-01T00:30:56.855Z,0
2018-07-01T00:32:04.932Z,0
2018-07-01T00:33:13.010Z,0
2018-07-01T00:34:21.063Z,0
2018-07-01T00:35:29.122Z,0
2018-07-01T00:36:37.174Z,0
2018-07-01T00:37:45.283Z,0
2018-07-01T00:38:53.335Z,0
2018-07-01T00:40:01.395Z,0
2018-07-01T00:41:13.908Z,0
2018-07-01T00:43:35.210Z,0
2018-07-01T00:44:49.422Z,0
2018-07-01T00:46:01.312Z,0
2018-07-01T00:47:08.768Z,0
2018-07-01T00:48:16.820Z,0
2018-07-01T00:49:24.907Z,0
2018-07-01T00:50:32.961Z,0
2018-07-01T00:51:41.040Z,0
2018-07-01T00:52:49.093Z,0
2018-07-01T00:53:57.135Z,0
2018-07-01T00:55:05.244Z,0
2018-07-01T00:56:13.290Z,0
2018-07-01T00:57:21.360Z,0
2018-07-01T00:58:29.430Z,0
2018-07-01T00:59:37.465Z,0
2018-07-01T01:00:45.568Z,0
2018-07-01T01:01:53.638Z,0
2018-07-01T01:03:01.699Z,0
2018-07-01T01:04:09.763Z,0
2018-07-01T01:05:17.831Z,0
2018-07-01T01:06:25.901Z,0
2018-07-01T01:07:33.974Z,0
2018-07-01T01:08:42.037Z,0
2018-07-01T01:09:50.108Z,0
2018-07-01T01:10:58.169Z,0
2018-07-01T01:12:06.262Z,0
2018-07-01T01:13:14.312Z,0
2018-07-01T01:14:22.374Z,0
2018-07-01T01:15:30.450Z,0
2018-07-01T01:16:38.525Z,0
2018-07-01T01:17:46.580Z,0
2018-07-01T01:18:54.650Z,0
2018-07-01T01:20:02.720Z,0
2018-07-01T01:21:10.785Z,0
2018-07-01T01:22:18.860Z,0
2018-07-01T01:23:26.903Z,0
2018-07-01T01:24:34.991Z,0
2018-07-01T01:25:43.064Z,0
2018-07-01T01:26:51.123Z,0
2018-07-01T01:27:59.185Z,0
2018-07-01T01:29:07.221Z,0
2018-07-01T01:30:15.325Z,0
2018-07-01T01:31:23.378Z,0
2018-07-01T01:32:31.452Z,0
2018-07-01T01:33:39.535Z,0
2018-07-01T01:34:47.564Z,0
2018-07-01T01:35:55.656Z,0
2018-07-01T01:37:03.729Z,0
2018-07-01T01:38:11.800Z,0
2018-07-01T01:39:19.866Z,0
2018-07-01T01:40:27.926Z,0
2018-07-01T01:41:36.000Z,0
2018-07-01T01:42:44.058Z,0
2018-07-01T01:43:52.131Z,0
2018-07-01T01:45:00.199Z,0
2018-07-01T01:46:08.261Z,0
2018-07-01T01:47:16.341Z,0
2018-07-01T01:48:24.395Z,0
2018-07-01T01:49:32.456Z,0
2018-07-01T01:50:40.535Z,0
2018-07-01T01:51:48.584Z,0
2018-07-01T01:52:56.645Z,0
2018-07-01T01:54:04.709Z,0
2018-07-01T01:55:12.776Z,0
2018-07-01T01:56:20.853Z,0
2018-07-01T01:57:28.920Z,0
2018-07-01T01:58:36.958Z,0
2018-07-01T01:59:45.057Z,0
2018-07-01T02:00:53.118Z,0
2018-07-01T02:02:01.185Z,0
2018-07-01T02:03:09.247Z,0
2018-07-01T02:04:17.288Z,0
2018-07-01T02:05:25.380Z,0
2018-07-01T02:06:33.455Z,0
2018-07-01T02:07:41.515Z,0
2018-07-01T02:08:49.589Z,0
2018-07-01T02:09:57.622Z,0
2018-07-01T02:11:05.720Z,0
2018-07-01T02:12:13.778Z,0
2018-07-01T02:13:21.850Z,0
2018-07-01T02:14:29.915Z,0
2018-07-01T02:15:37.969Z,0
2018-07-01T02:16:46.044Z,0
2018-07-01T02:17:54.109Z,0
2018-07-01T02:19:02.181Z,0
2018-07-01T02:20:10.247Z,0
2018-07-01T02:21:18.306Z,0
2018-07-01T02:22:26.375Z,0
2018-07-01T02:23:34.444Z,0
2018-07-01T02:24:42.522Z,0
2018-07-01T02:25:50.580Z,0
2018-07-01T02:26:58.644Z,0
2018-07-01T02:28:06.698Z,0
2018-07-01T02:29:14.790Z,0
2018-07-01T02:30:22.852Z,0
2018-07-01T02:31:30.919Z,0
2018-07-01T02:32:38.977Z,0
2018-07-01T02:33:47.017Z,0
2018-07-01T02:34:55.111Z,0
2018-07-01T02:36:03.182Z,0
2018-07-01T02:37:11.230Z,0
2018-07-01T02:38:19.307Z,0
2018-07-01T02:39:27.351Z,0
2018-07-01T02:40:35.442Z,0
2018-07-01T02:41:43.510Z,0
2018-07-01T02:42:51.571Z,0
2018-07-01T02:43:59.635Z,0
2018-07-01T02:45:07.693Z,0
2018-07-01T02:46:15.759Z,0
2018-07-01T02:47:23.838Z,4
2018-07-01T02:48:31.893Z,4
2018-07-01T02:49:39.975Z,0
2018-07-01T02:50:48.049Z,0
2018-07-01T02:51:56.099Z,4
2018-07-01T02:53:04.166Z,0
2018-07-01T02:54:12.248Z,4
2018-07-01T02:55:20.309Z,8
2018-07-01T02:56:28.370Z,4
2018-07-01T02:57:36.449Z,4
2018-07-01T02:58:44.490Z,8
2018-07-01T02:59:52.564Z,8
2018-07-01T03:01:00.620Z,8
2018-07-01T03:02:08.743Z,12
2018-07-01T03:03:16.764Z,12
2018-07-01T03:04:24.827Z,16
2018-07-01T03:05:32.900Z,20
2018-07-01T03:06:40.964Z,24
2018-07-01T03:07:49.034Z,24
2018-07-01T03:08:57.071Z,32
2018-07-01T03:10:05.176Z,36
2018-07-01T03:11:13.235Z,44
2018-07-01T03:12:21.289Z,48
2018-07-01T03:13:29.353Z,56
2018-07-01T03:14:37.397Z,64
2018-07-01T03:15:45.498Z,68
2018-07-01T03:16:53.561Z,80
2018-07-01T03:18:01.621Z,92
2018-07-01T03:19:09.700Z,104
2018-07-01T03:20:17.747Z,116
2018-07-01T03:21:25.828Z,128
2018-07-01T03:22:33.887Z,144
2018-07-01T03:23:41.959Z,160
2018-07-01T03:24:50.013Z,176
2018-07-01T03:25:58.095Z,196
2018-07-01T03:27:06.143Z,212
2018-07-01T03:28:14.217Z,236
2018-07-01T03:29:22.293Z,256
2018-07-01T03:30:30.359Z,280
2018-07-01T03:31:38.419Z,300
2018-07-01T03:32:46.488Z,328
2018-07-01T03:33:54.568Z,352
2018-07-01T03:35:02.616Z,380
2018-07-01T03:36:10.691Z,408
2018-07-01T03:37:18.756Z,444
2018-07-01T03:38:26.819Z,476
2018-07-01T03:39:34.889Z,512
2018-07-01T03:40:42.953Z,552
2018-07-01T03:41:51.001Z,588
2018-07-01T03:42:59.080Z,632
2018-07-01T03:44:07.122Z,668
2018-07-01T03:45:15.212Z,712
2018-07-01T03:46:23.279Z,756
2018-07-01T03:47:31.356Z,800
2018-07-01T03:48:39.420Z,848
2018-07-01T03:49:47.461Z,900
2018-07-01T03:50:55.579Z,952
2018-07-01T03:52:03.634Z,1008
2018-07-01T03:53:11.699Z,1068
2018-07-01T03:54:19.779Z,1128
2018-07-01T03:55:27.838Z,1184
2018-07-01T03:56:35.895Z,1244
2018-07-01T03:57:44.035Z,1308
2018-07-01T03:58:52.043Z,1368
2018-07-01T04:00:00.104Z,1424
2018-07-01T04:01:08.176Z,1484
2018-07-01T04:02:16.241Z,1544
2018-07-01T04:03:24.303Z,1600
2018-07-01T04:04:32.380Z,1664
2018-07-01T04:05:40.434Z,1724
2018-07-01T04:06:48.514Z,1788
2018-07-01T04:07:56.569Z,1856
2018-07-01T04:09:04.639Z,1928
2018-07-01T04:10:12.697Z,2000
2018-07-01T04:11:20.768Z,2064
2018-07-01T04:12:28.883Z,2128
2018-07-01T04:13:36.883Z,2196
2018-07-01T04:14:44.961Z,2264
2018-07-01T04:15:53.027Z,2332
2018-07-01T04:17:01.096Z,2396
2018-07-01T04:18:09.160Z,2460
2018-07-01T04:19:17.210Z,2528
2018-07-01T04:20:25.306Z,2600
2018-07-01T04:21:33.364Z,2660
2018-07-01T04:22:41.425Z,2720
2018-07-01T04:23:49.495Z,2780
2018-07-01T04:24:57.548Z,2840
2018-07-01T04:26:05.622Z,2892
2018-07-01T04:27:14.678Z,2952
2018-07-01T04:28:21.756Z,3012
2018-07-01T04:29:29.826Z,3080
2018-07-01T04:30:37.883Z,3156
2018-07-01T04:31:45.953Z,3236
2018-07-01T04:32:54.032Z,3324
2018-07-01T04:34:02.090Z,3412
2018-07-01T04:35:10.158Z,3480
2018-07-01T04:36:18.224Z,3548
2018-07-01T04:37:26.292Z,3608
2018-07-01T04:38:34.357Z,3664
2018-07-01T04:39:42.420Z,3728
2018-07-01T04:40:50.476Z,3776
2018-07-01T04:41:58.556Z,3848
2018-07-01T04:43:06.620Z,3924
2018-07-01T04:44:14.686Z,4000
2018-07-01T04:45:22.755Z,4068
2018-07-01T04:46:30.800Z,4112
2018-07-01T04:47:38.894Z,4172
2018-07-01T04:48:46.926Z,4212
2018-07-01T04:49:55.017Z,4276
2018-07-01T04:51:03.082Z,4328
2018-07-01T04:52:11.145Z,4408
2018-07-01T04:53:19.198Z,4472
2018-07-01T04:54:27.251Z,4532
2018-07-01T04:55:35.353Z,4592
2018-07-01T04:56:43.406Z,4656
2018-07-01T04:57:51.481Z,4732
2018-07-01T04:58:59.541Z,4748
2018-07-01T05:00:07.587Z,4788
2018-07-01T05:01:15.688Z,4808
2018-07-01T05:02:23.740Z,4832
2018-07-01T05:03:31.809Z,4856
2018-07-01T05:04:39.878Z,4884
2018-07-01T05:05:47.945Z,4924
2018-07-01T05:06:56.007Z,5048
2018-07-01T05:08:04.068Z,6508
2018-07-01T05:09:12.145Z,6428
2018-07-01T05:10:20.211Z,5508
2018-07-01T05:11:28.279Z,5456
2018-07-01T05:12:36.341Z,5288
2018-07-01T05:13:44.404Z,5392
2018-07-01T05:14:52.466Z,5348
2018-07-01T05:16:00.543Z,5348
2018-07-01T05:17:08.616Z,5388
2018-07-01T05:18:16.671Z,5432
2018-07-01T05:19:24.737Z,5496
2018-07-01T05:20:32.800Z,5568
2018-07-01T05:21:40.878Z,5644
2018-07-01T05:22:49.623Z,5672
2018-07-01T05:23:57.051Z,5704
2018-07-01T05:25:05.068Z,5692
2018-07-01T05:26:13.134Z,5672
2018-07-01T05:27:21.207Z,5672
2018-07-01T05:28:29.275Z,5692
2018-07-01T05:29:37.308Z,5732
2018-07-01T05:30:45.404Z,5792
2018-07-01T05:31:53.474Z,5856
2018-07-01T05:33:01.546Z,5964
2018-07-01T05:34:09.595Z,6024
2018-07-01T05:35:17.661Z,6208
2018-07-01T05:36:26.278Z,6128
2018-07-01T05:37:33.814Z,6144
2018-07-01T05:38:41.877Z,6220
2018-07-01T05:39:49.929Z,6284
2018-07-01T05:40:58.008Z,6344
2018-07-01T05:42:06.074Z,6392
2018-07-01T05:43:14.630Z,6444
2018-07-01T05:44:22.440Z,6508
2018-07-01T05:45:30.272Z,6592
2018-07-01T05:46:39.643Z,6712
2018-07-01T05:47:46.829Z,6804
2018-07-01T05:48:54.475Z,6924
2018-07-01T05:50:03.212Z,7024
2018-07-01T05:51:10.608Z,7100
2018-07-01T05:52:18.680Z,7152
2018-07-01T05:53:26.731Z,7188
2018-07-01T05:54:35.296Z,7216
2018-07-01T05:55:43.466Z,7244
2018-07-01T05:56:51.549Z,7284
2018-07-01T05:57:59.020Z,7336
2018-07-01T05:59:07.527Z,7384
2018-07-01T06:00:15.146Z,7452
2018-07-01T06:01:23.660Z,7484
2018-07-01T06:02:31.273Z,7520
2018-07-01T06:03:39.612Z,7528
2018-07-01T06:04:47.389Z,7568
2018-07-01T06:05:55.466Z,7616
2018-07-01T06:07:04.122Z,7668
2018-07-01T06:08:12.154Z,7744
2018-07-01T06:09:19.688Z,7796
2018-07-01T06:10:28.315Z,7848
2018-07-01T06:11:36.323Z,7880
2018-07-01T06:12:43.884Z,7932
2018-07-01T06:13:51.957Z,7948
2018-07-01T06:15:00.042Z,7972
2018-07-01T06:16:08.229Z,8024
2018-07-01T06:17:16.159Z,8112
2018-07-01T06:18:24.308Z,8168
2018-07-01T06:19:32.554Z,8260
2018-07-01T06:20:40.985Z,8356
2018-07-01T06:21:48.424Z,8436
2018-07-01T06:22:57.043Z,8492
2018-07-01T06:24:05.173Z,8564
2018-07-01T06:25:12.636Z,8696
2018-07-01T06:26:20.691Z,8844
2018-07-01T06:27:28.767Z,8992
2018-07-01T06:28:38.499Z,9164
2018-07-01T06:29:45.585Z,9336
2018-07-01T06:30:52.977Z,9420
2018-07-01T06:32:17.700Z,9468
2018-07-01T06:33:10.600Z,9484
2018-07-01T06:34:18.338Z,9452
2018-07-01T06:35:26.232Z,9436
2018-07-01T06:36:34.408Z,9420
2018-07-01T06:37:44.982Z,9448
2018-07-01T06:38:53.072Z,9484
2018-07-01T06:40:01.120Z,9540
2018-07-01T06:41:09.418Z,9612
2018-07-01T06:42:17.429Z,9688
2018-07-01T06:43:26.789Z,9760
2018-07-01T06:44:34.608Z,9840
2018-07-01T06:45:43.502Z,9912
2018-07-01T06:46:50.723Z,9964
2018-07-01T06:47:59.433Z,10004
2018-07-01T06:49:07.427Z,10036
2018-07-01T06:50:14.936Z,10044
2018-07-01T06:51:22.992Z,10092
2018-07-01T06:52:31.628Z,10120
2018-07-01T06:53:39.278Z,10136
2018-07-01T06:54:47.175Z,10104
2018-07-01T06:55:55.272Z,10088
2018-07-01T06:57:03.344Z,10080
2018-07-01T06:58:11.417Z,10168
2018-07-01T06:59:19.489Z,10556
2018-07-01T07:00:27.516Z,11812
2018-07-01T07:01:35.603Z,12284
2018-07-01T07:02:43.690Z,12528
2018-07-01T07:03:51.783Z,12672
2018-07-01T07:04:59.798Z,16176
2018-07-01T07:06:07.870Z,17508
2018-07-01T07:07:15.987Z,26688
2018-07-01T07:08:24.435Z,30720
2018-07-01T07:09:32.656Z,38624
2018-07-01T07:10:40.167Z,21376
2018-07-01T07:11:48.220Z,24384
2018-07-01T07:12:56.297Z,40480
2018-07-01T07:14:04.366Z,32992
2018-07-01T07:15:12.447Z,30880
2018-07-01T07:16:20.627Z,35584
2018-07-01T07:17:28.573Z,17192
2018-07-01T07:18:37.003Z,39744
2018-07-01T07:19:44.718Z,49440
2018-07-01T07:20:52.795Z,63008
2018-07-01T07:22:00.871Z,78400
2018-07-01T07:23:09.568Z,68576
2018-07-01T07:24:17.306Z,54272
2018-07-01T07:25:25.258Z,60832
2018-07-01T07:26:33.491Z,75200
2018-07-01T07:27:43.103Z,28800
2018-07-01T07:28:49.557Z,30528
2018-07-01T07:29:57.357Z,42144
2018-07-01T07:31:05.774Z,49696
2018-07-01T07:32:13.737Z,50208
2018-07-01T07:33:21.656Z,54304
2018-07-01T07:34:29.817Z,60064
2018-07-01T07:35:37.724Z,60672
2018-07-01T07:36:45.828Z,54368
2018-07-01T07:37:54.256Z,50976
2018-07-01T07:39:01.982Z,51136
2018-07-01T07:40:10.067Z,54560
2018-07-01T07:41:18.150Z,57664
2018-07-01T07:42:26.198Z,59168
2018-07-01T07:43:34.285Z,56192
2018-07-01T07:44:42.365Z,58432
2018-07-01T07:45:50.437Z,57824
2018-07-01T07:46:58.515Z,59328
2018-07-01T07:48:06.600Z,58368
2018-07-01T07:49:16.614Z,58880
2018-07-01T07:50:23.419Z,58624
2018-07-01T07:51:31.364Z,61504
2018-07-01T07:52:38.909Z,63328
2018-07-01T07:53:46.975Z,61568
2018-07-01T07:54:55.686Z,61568
2018-07-01T07:56:03.698Z,66784
2018-07-01T07:57:11.236Z,67040
2018-07-01T07:58:19.830Z,64352
2018-07-01T07:59:27.353Z,65504
2018-07-01T08:00:35.479Z,66176
2018-07-01T08:01:43.558Z,67104
2018-07-01T08:02:51.638Z,69696
2018-07-01T08:03:59.702Z,69760
2018-07-01T08:05:07.798Z,70400
2018-07-01T08:06:15.861Z,74560
2018-07-01T08:07:23.979Z,73568
2018-07-01T08:08:32.031Z,72384
2018-07-01T08:09:40.127Z,74208
2018-07-01T08:10:48.189Z,75008
2018-07-01T08:11:56.272Z,77024
2018-07-01T08:13:04.420Z,76512
2018-07-01T08:14:12.450Z,75584
2018-07-01T08:15:20.509Z,75072
2018-07-01T08:16:28.604Z,79872
2018-07-01T08:17:36.796Z,81984
2018-07-01T08:18:44.807Z,80224
2018-07-01T08:19:52.830Z,76960
2018-07-01T08:21:00.911Z,76320
2018-07-01T08:22:08.989Z,75776
2018-07-01T08:23:17.048Z,76480
2018-07-01T08:24:25.160Z,79648
2018-07-01T08:25:33.250Z,79552
2018-07-01T08:26:41.326Z,81760
2018-07-01T08:27:49.410Z,82880
2018-07-01T08:28:57.526Z,82368
2018-07-01T08:30:05.616Z,82048
2018-07-01T08:31:13.641Z,80640
2018-07-01T08:32:21.734Z,79968
2018-07-01T08:33:29.810Z,81600
2018-07-01T08:34:37.936Z,79872
2018-07-01T08:35:45.981Z,83840
2018-07-01T08:36:54.061Z,82560
2018-07-01T08:38:02.151Z,83648
2018-07-01T08:39:10.230Z,82080
2018-07-01T08:40:18.352Z,83552
2018-07-01T08:41:26.402Z,84480
2018-07-01T08:42:34.479Z,84544
2018-07-01T08:43:42.564Z,81184
2018-07-01T08:44:50.625Z,78912
2018-07-01T08:45:58.706Z,77024
2018-07-01T08:47:06.780Z,75040
2018-07-01T08:48:14.878Z,80160
2018-07-01T08:49:22.967Z,83072
2018-07-01T08:50:31.039Z,85088
2018-07-01T08:51:39.124Z,82560
2018-07-01T08:52:47.254Z,85216
2018-07-01T08:53:55.292Z,83360
2018-07-01T08:55:03.385Z,77984
2018-07-01T08:56:11.457Z,79808
2018-07-01T08:57:19.543Z,71968
2018-07-01T08:58:27.590Z,76832
2018-07-01T08:59:35.699Z,74752
2018-07-01T09:00:43.802Z,85344
2018-07-01T09:01:51.874Z,86016
2018-07-01T09:02:59.965Z,87360
2018-07-01T09:04:08.035Z,88864
2018-07-01T09:05:16.122Z,90336
2018-07-01T09:06:24.211Z,86720
2018-07-01T09:07:32.293Z,85696
2018-07-01T09:08:40.514Z,86688
2018-07-01T09:09:48.458Z,90784
2018-07-01T09:10:56.586Z,92000
2018-07-01T09:12:04.626Z,93312
2018-07-01T09:13:12.702Z,89952
2018-07-01T09:14:20.785Z,87456
2018-07-01T09:15:28.870Z,88832
2018-07-01T09:16:36.923Z,95136
2018-07-01T09:17:45.041Z,96320
2018-07-01T09:18:53.131Z,93984
2018-07-01T09:20:01.209Z,82464
2018-07-01T09:21:09.278Z,77536
2018-07-01T09:22:17.343Z,86592
2018-07-01T09:23:25.461Z,84000
2018-07-01T09:24:33.542Z,80288
2018-07-01T09:25:41.617Z,82016
2018-07-01T09:26:49.706Z,79712
2018-07-01T09:27:57.775Z,85056
2018-07-01T09:29:05.889Z,87744
2018-07-01T09:30:13.963Z,74400
2018-07-01T09:31:22.030Z,27488
2018-07-01T09:32:30.101Z,9212
2018-07-01T09:33:38.195Z,9232
2018-07-01T09:34:46.384Z,9236
2018-07-01T09:35:54.362Z,9272
2018-07-01T09:37:02.452Z,9308
2018-07-01T09:38:10.533Z,9356
2018-07-01T09:39:18.616Z,9368
2018-07-01T09:40:26.678Z,9356
2018-07-01T09:41:34.763Z,9340
2018-07-01T09:42:42.842Z,9340
2018-07-01T09:43:50.918Z,9304
2018-07-01T09:44:58.993Z,9256
2018-07-01T09:46:07.052Z,9164
2018-07-01T09:47:15.157Z,9108
2018-07-01T09:48:23.237Z,9072
2018-07-01T09:49:31.313Z,9008
2018-07-01T09:50:39.397Z,8972
2018-07-01T09:51:47.451Z,8940
2018-07-01T09:52:55.541Z,8904
2018-07-01T09:54:03.624Z,8852
2018-07-01T09:55:11.695Z,8804
2018-07-01T09:56:19.772Z,8780
2018-07-01T09:57:27.896Z,8740
2018-07-01T09:58:35.918Z,8664
2018-07-01T09:59:44.010Z,8556
2018-07-01T10:00:52.070Z,8496
2018-07-01T10:02:00.188Z,8500
2018-07-01T10:03:08.213Z,8532
2018-07-01T10:04:16.323Z,8544
2018-07-01T10:05:24.375Z,8584
2018-07-01T10:06:32.438Z,8584
2018-07-01T10:07:40.520Z,8612
2018-07-01T10:08:48.597Z,8556
2018-07-01T10:09:56.672Z,8500
2018-07-01T10:11:04.749Z,8412
2018-07-01T10:12:12.815Z,8352
2018-07-01T10:13:20.892Z,8332
2018-07-01T10:14:28.974Z,8320
2018-07-01T10:15:37.010Z,8296
2018-07-01T10:16:45.112Z,8240
2018-07-01T10:17:53.197Z,8172
2018-07-01T10:19:01.283Z,8104
2018-07-01T10:20:09.344Z,8036
2018-07-01T10:21:17.380Z,7996
2018-07-01T10:22:25.491Z,7952
2018-07-01T10:23:33.560Z,7952
2018-07-01T10:24:41.648Z,7972
2018-07-01T10:25:49.698Z,7956
2018-07-01T10:26:57.813Z,7932
2018-07-01T10:28:05.866Z,7872
2018-07-01T10:29:13.915Z,7796
2018-07-01T10:30:22.007Z,7752
2018-07-01T10:31:30.068Z,7836
2018-07-01T10:32:38.147Z,7856
2018-07-01T10:33:46.213Z,7876
2018-07-01T10:34:54.288Z,7856
2018-07-01T10:36:02.367Z,7796
2018-07-01T10:37:10.439Z,7748
2018-07-01T10:38:18.516Z,7692
2018-07-01T10:39:26.594Z,7660
2018-07-01T10:40:34.665Z,7636
2018-07-01T10:41:42.735Z,7560
2018-07-01T10:42:50.810Z,7520
2018-07-01T10:43:58.887Z,7488
2018-07-01T10:45:06.969Z,7528
2018-07-01T10:46:15.028Z,7592
2018-07-01T10:47:23.098Z,7584
2018-07-01T10:48:31.181Z,7556
2018-07-01T10:49:39.242Z,7504
2018-07-01T10:50:47.293Z,7428
2018-07-01T10:51:55.386Z,7380
2018-07-01T10:53:03.473Z,7308
2018-07-01T10:54:11.534Z,7284
2018-07-01T10:55:19.610Z,7332
2018-07-01T10:56:27.668Z,7336
2018-07-01T10:57:35.785Z,7340
2018-07-01T10:58:43.838Z,7320
2018-07-01T10:59:51.897Z,7268
2018-07-01T11:00:59.970Z,7216
2018-07-01T11:02:08.048Z,7132
2018-07-01T11:03:16.117Z,7068
2018-07-01T11:04:24.185Z,7052
2018-07-01T11:05:32.277Z,7068
2018-07-01T11:06:40.351Z,7084
2018-07-01T11:07:48.409Z,7100
2018-07-01T11:08:56.499Z,7060
2018-07-01T11:10:04.563Z,6996
2018-07-01T11:11:12.640Z,6932
2018-07-01T11:12:20.713Z,6892
2018-07-01T11:13:28.790Z,6876
2018-07-01T11:14:36.837Z,6864
2018-07-01T11:15:44.939Z,6852
2018-07-01T11:16:53.011Z,6812
2018-07-01T11:18:01.080Z,6776
2018-07-01T11:19:09.146Z,6724
2018-07-01T11:20:17.224Z,6688
2018-07-01T11:21:25.309Z,6680
2018-07-01T11:22:33.380Z,6660
2018-07-01T11:23:41.443Z,6620
2018-07-01T11:24:49.524Z,6580
2018-07-01T11:25:57.570Z,6584
2018-07-01T11:27:05.898Z,6580
2018-07-01T11:28:13.738Z,6520
2018-07-01T11:29:21.812Z,6444
2018-07-01T11:30:29.932Z,6392
2018-07-01T11:31:37.950Z,6344
2018-07-01T11:32:46.102Z,6320
2018-07-01T11:33:54.110Z,6312
2018-07-01T11:35:02.232Z,6304
2018-07-01T11:36:10.267Z,6332
2018-07-01T11:37:18.339Z,6364
2018-07-01T11:38:26.413Z,6348
2018-07-01T11:39:34.485Z,6328
2018-07-01T11:40:42.555Z,6308
2018-07-01T11:41:50.648Z,6280
2018-07-01T11:42:58.729Z,6224
2018-07-01T11:44:06.778Z,6176
2018-07-01T11:45:14.856Z,6120
2018-07-01T11:46:22.929Z,6048
2018-07-01T11:47:31.007Z,6000
2018-07-01T11:48:39.080Z,5984
2018-07-01T11:49:47.132Z,5976
2018-07-01T11:50:55.218Z,5960
2018-07-01T11:52:03.295Z,5948
2018-07-01T11:53:11.358Z,5916
2018-07-01T11:54:19.436Z,5892
2018-07-01T11:55:27.490Z,5840
2018-07-01T11:56:35.600Z,5796
2018-07-01T11:57:43.659Z,5780
2018-07-01T11:58:51.733Z,5772
2018-07-01T11:59:59.822Z,5792
2018-07-01T12:01:07.873Z,5792
2018-07-01T12:02:15.948Z,5768
2018-07-01T12:03:24.020Z,5732
2018-07-01T12:04:32.097Z,5708
2018-07-01T12:05:40.183Z,5684
2018-07-01T12:06:48.256Z,5628
2018-07-01T12:07:56.326Z,5600
2018-07-01T12:09:04.393Z,5584
2018-07-01T12:10:12.461Z,5568
2018-07-01T12:11:20.540Z,5544
2018-07-01T12:12:28.626Z,5508
2018-07-01T12:13:36.780Z,5480
2018-07-01T12:14:44.754Z,5464
2018-07-01T12:15:52.845Z,5404
2018-07-01T12:17:00.903Z,5380
2018-07-01T12:18:08.985Z,5384
2018-07-01T12:19:17.032Z,5392
2018-07-01T12:20:25.133Z,5380
2018-07-01T12:21:33.215Z,5368
2018-07-01T12:22:41.287Z,5348
2018-07-01T12:23:49.357Z,5296
2018-07-01T12:24:57.398Z,5276
2018-07-01T12:26:05.502Z,5244
2018-07-01T12:27:13.575Z,5216
2018-07-01T12:28:21.653Z,5172
2018-07-01T12:29:29.726Z,5128
2018-07-01T12:30:37.792Z,5084
2018-07-01T12:31:45.876Z,5056
2018-07-01T12:32:53.953Z,5068
2018-07-01T12:34:02.015Z,5044
2018-07-01T12:35:10.090Z,4996
2018-07-01T12:36:18.165Z,4932
2018-07-01T12:37:26.237Z,4892
2018-07-01T12:38:34.300Z,4872
2018-07-01T12:39:42.386Z,4856
2018-07-01T12:40:50.454Z,4844
2018-07-01T12:41:58.638Z,4840
2018-07-01T12:43:06.605Z,4832
2018-07-01T12:44:14.680Z,4828
2018-07-01T12:45:22.758Z,4820
2018-07-01T12:46:30.846Z,4792
2018-07-01T12:47:38.926Z,4760
2018-07-01T12:48:46.948Z,4748
2018-07-01T12:49:55.054Z,4736
2018-07-01T12:51:03.136Z,4700
2018-07-01T12:52:11.187Z,4684
2018-07-01T12:53:19.284Z,4672
2018-07-01T12:54:27.320Z,4620
2018-07-01T12:55:35.415Z,4608
2018-07-01T12:56:43.477Z,4604
2018-07-01T12:57:51.561Z,4588
2018-07-01T12:58:59.640Z,4580
2018-07-01T13:00:07.690Z,4564
2018-07-01T13:01:15.781Z,4540
2018-07-01T13:02:23.909Z,4520
2018-07-01T13:03:31.927Z,4492
2018-07-01T13:04:39.999Z,4468
2018-07-01T13:05:48.079Z,4460
2018-07-01T13:06:56.139Z,4452
2018-07-01T13:08:04.212Z,4444
2018-07-01T13:09:12.336Z,4408
2018-07-01T13:10:20.368Z,4412
2018-07-01T13:11:28.433Z,4404
2018-07-01T13:12:36.508Z,4400
2018-07-01T13:13:44.578Z,4392
2018-07-01T13:14:52.661Z,4384
2018-07-01T13:16:00.727Z,4384
2018-07-01T13:17:08.808Z,4380
2018-07-01T13:18:16.877Z,4352
2018-07-01T13:19:25.003Z,4316
2018-07-01T13:20:33.029Z,4292
2018-07-01T13:21:41.096Z,4284
2018-07-01T13:22:49.177Z,4296
2018-07-01T13:23:57.216Z,4288
2018-07-01T13:25:05.352Z,4268
2018-07-01T13:26:13.390Z,4252
2018-07-01T13:27:21.456Z,4220
2018-07-01T13:28:29.539Z,4224
2018-07-01T13:29:37.583Z,4228
2018-07-01T13:30:45.680Z,4224
2018-07-01T13:31:53.763Z,4188
2018-07-01T13:33:01.838Z,4128
2018-07-01T13:34:09.893Z,4080
2018-07-01T13:35:18.003Z,4052
2018-07-01T13:36:26.074Z,4036
2018-07-01T13:37:34.215Z,4032
2018-07-01T13:38:42.210Z,4040
2018-07-01T13:39:50.282Z,4024
2018-07-01T13:40:58.348Z,3992
2018-07-01T13:42:06.438Z,3984
2018-07-01T13:43:14.499Z,3992
2018-07-01T13:44:22.575Z,4000
2018-07-01T13:45:30.656Z,4004
2018-07-01T13:46:38.733Z,4000
2018-07-01T13:47:46.787Z,3996
2018-07-01T13:48:54.867Z,3980
2018-07-01T13:50:03.029Z,3952
2018-07-01T13:51:11.038Z,3932
2018-07-01T13:52:19.089Z,3896
2018-07-01T13:53:27.150Z,3876
2018-07-01T13:54:35.364Z,3864
2018-07-01T13:55:43.308Z,3848
2018-07-01T13:56:51.433Z,3840
2018-07-01T13:57:59.455Z,3808
2018-07-01T13:59:07.495Z,3800
2018-07-01T14:00:15.606Z,3800
2018-07-01T14:01:23.703Z,3804
2018-07-01T14:02:31.756Z,3788
2018-07-01T14:03:39.846Z,3780
2018-07-01T14:04:47.901Z,3756
2018-07-01T14:05:55.989Z,3756
2018-07-01T14:07:04.061Z,3764
2018-07-01T14:08:12.127Z,3752
2018-07-01T14:09:20.201Z,3740
2018-07-01T14:10:28.282Z,3704
2018-07-01T14:11:36.344Z,3684
2018-07-01T14:12:44.422Z,3676
2018-07-01T14:13:52.506Z,3680
2018-07-01T14:15:00.550Z,3684
2018-07-01T14:16:08.640Z,3696
2018-07-01T14:17:16.723Z,3700
2018-07-01T14:18:24.779Z,3708
2018-07-01T14:19:32.863Z,3708
2018-07-01T14:20:40.939Z,3720
2018-07-01T14:21:49.000Z,3740
2018-07-01T14:22:57.058Z,3752
2018-07-01T14:24:05.147Z,3752
2018-07-01T14:25:13.219Z,3740
2018-07-01T14:26:21.293Z,3724
2018-07-01T14:27:29.365Z,3700
2018-07-01T14:28:37.427Z,3672
2018-07-01T14:29:45.562Z,3648
2018-07-01T14:30:53.584Z,3636
2018-07-01T14:32:01.666Z,3612
2018-07-01T14:33:09.732Z,3580
2018-07-01T14:34:17.796Z,3544
2018-07-01T14:35:25.860Z,3552
2018-07-01T14:36:33.945Z,3552
2018-07-01T14:37:42.016Z,3540
2018-07-01T14:38:50.088Z,3496
2018-07-01T14:39:58.154Z,3456
2018-07-01T14:41:06.238Z,3468
2018-07-01T14:42:14.293Z,3460
2018-07-01T14:43:22.360Z,3440
2018-07-01T14:44:30.437Z,3412
2018-07-01T14:45:38.518Z,3380
2018-07-01T14:46:46.602Z,3356
2018-07-01T14:47:54.666Z,3344
2018-07-01T14:49:02.730Z,3336
2018-07-01T14:50:10.807Z,3316
2018-07-01T14:51:18.893Z,3300
2018-07-01T14:52:26.925Z,3284
2018-07-01T14:53:35.028Z,3272
2018-07-01T14:54:43.102Z,3252
2018-07-01T14:55:51.181Z,3244
2018-07-01T14:56:59.252Z,3244
2018-07-01T14:58:07.290Z,3228
2018-07-01T14:59:15.402Z,3220
2018-07-01T15:00:23.465Z,3208
2018-07-01T15:01:31.546Z,3200
2018-07-01T15:02:39.610Z,3196
2018-07-01T15:03:47.667Z,3180
2018-07-01T15:04:55.771Z,3164
2018-07-01T15:06:04.354Z,3172
2018-07-01T15:07:11.912Z,3164
2018-07-01T15:08:19.981Z,3164
2018-07-01T15:09:28.058Z,3160
2018-07-01T15:10:36.140Z,3152
2018-07-01T15:11:44.198Z,3144
2018-07-01T15:12:52.288Z,3140
2018-07-01T15:14:00.355Z,3152
2018-07-01T15:15:08.436Z,3152
2018-07-01T15:16:16.540Z,3160
2018-07-01T15:17:24.568Z,3172
2018-07-01T15:18:32.632Z,3176
2018-07-01T15:19:40.709Z,3192
2018-07-01T15:20:48.784Z,3192
2018-07-01T15:21:56.859Z,3196